Time;durP1;ratioP1;P1;durP2;ratioP2;P2;SDS_P1;SDS_P2;PMS_P1;PMS_P2;Temp;Humidity;BMP_temperature;BMP_pressure;BME280_temperature;BME280_humidity;BME280_pressure;Samples;Min_cycle;Max_cycle;Signal;HPM_P1;HPM_P2
2023/07/20 00:02:24;;;;;;;15.32;7.22;;;;;;;16.63;89.87;101336.38;4918151;29;20028;-96
2023/07/20 00:05:01;;;;;;;13.15;7.28;;;;;;;16.64;90.72;101332.84;4915519;29;20032;-96
2023/07/20 00:07:29;;;;;;;16.63;7.55;;;;;;;16.65;90.14;101334.63;4911014;29;20034;-96
2023/07/20 00:09:57;;;;;;;12.00;7.05;;;;;;;16.65;90.12;101331.97;4919568;29;20028;-96
2023/07/20 00:12:30;;;;;;;12.27;7.00;;;;;;;16.69;89.64;101342.53;4918938;29;20028;-96
2023/07/20 00:14:56;;;;;;;18.20;7.78;;;;;;;16.69;89.96;101341.66;4919558;29;20061;-96
2023/07/20 00:17:21;;;;;;;17.63;7.25;;;;;;;16.68;89.79;101340.78;4919076;29;20094;-96
2023/07/20 00:19:49;;;;;;;18.27;7.90;;;;;;;16.64;89.45;101336.38;4913506;29;20056;-96
2023/07/20 00:22:30;;;;;;;16.88;7.65;;;;;;;16.62;89.39;101329.34;4931644;29;20414;-96
2023/07/20 00:25:00;;;;;;;16.58;8.60;;;;;;;16.60;89.65;101339.00;4919946;29;20024;-96
2023/07/20 00:27:33;;;;;;;16.25;7.70;;;;;;;16.55;88.83;101338.94;4917678;29;20394;-95
2023/07/20 00:29:59;;;;;;;17.17;8.35;;;;;;;16.50;90.47;101336.28;4918219;29;20024;-96
2023/07/20 00:32:30;;;;;;;15.82;7.93;;;;;;;16.44;91.16;101336.25;4911057;29;20035;-96
2023/07/20 00:35:01;;;;;;;14.60;7.78;;;;;;;16.44;91.06;101335.38;4937367;29;20486;-95
2023/07/20 00:37:27;;;;;;;14.48;7.78;;;;;;;16.40;91.17;101334.44;4924329;29;20035;-96
2023/07/20 00:39:59;;;;;;;16.17;8.23;;;;;;;16.37;91.56;101339.69;4921704;29;20032;-95
2023/07/20 00:42:26;;;;;;;18.83;8.68;;;;;;;16.34;91.27;101339.66;4924581;29;20036;-96
2023/07/20 00:44:52;;;;;;;18.27;8.45;;;;;;;16.39;91.13;101339.69;4921061;29;20103;-96
2023/07/20 00:47:20;;;;;;;25.30;8.70;;;;;;;16.39;91.24;101337.94;4918458;29;20036;-95
2023/07/20 00:49:49;;;;;;;17.88;8.60;;;;;;;16.33;91.81;101344.03;4923293;29;20035;-96
2023/07/20 00:52:21;;;;;;;18.52;8.02;;;;;;;16.32;91.78;101336.13;4918530;29;20111;-96
2023/07/20 00:54:56;;;;;;;18.42;8.50;;;;;;;16.25;92.18;101340.47;4918054;29;20032;-95
2023/07/20 00:57:24;;;;;;;18.13;8.77;;;;;;;16.25;91.73;101342.22;4917749;29;20027;-94
2023/07/20 01:00:00;;;;;;;19.63;8.67;;;;;;;16.19;92.35;101336.91;4917939;29;20024;-95
2023/07/20 01:02:31;;;;;;;17.95;8.48;;;;;;;16.15;92.95;101339.50;4918408;29;20406;-96
2023/07/20 01:04:57;;;;;;;18.33;8.70;;;;;;;16.13;92.63;101345.63;4918262;29;20471;-95
2023/07/20 01:07:43;;;;;;;18.48;8.82;;;;;;;16.09;92.50;101343.81;4918458;29;20035;-95
2023/07/20 01:10:19;;;;;;;16.20;8.65;;;;;;;16.08;92.18;101339.47;4917836;29;20043;-96
2023/07/20 01:12:55;;;;;;;18.08;8.82;;;;;;;15.99;91.87;101348.16;4919565;29;20061;-96
2023/07/20 01:15:26;;;;;;;17.40;8.70;;;;;;;15.99;92.28;101350.78;4920684;29;20399;-96
2023/07/20 01:18:01;;;;;;;17.90;9.02;;;;;;;15.99;91.96;101349.00;4920753;29;20027;-96
2023/07/20 01:20:28;;;;;;;17.73;8.82;;;;;;;15.92;92.61;101354.22;4921864;29;20028;-96
2023/07/20 01:23:24;;;;;;;17.27;8.52;;;;;;;15.87;92.20;101350.63;4921419;29;20501;-96
2023/07/20 01:26:11;;;;;;;16.85;8.50;;;;;;;15.85;93.44;101350.63;4909243;29;20119;-96
2023/07/20 01:28:49;;;;;;;17.83;8.77;;;;;;;15.93;93.91;101348.06;4919270;29;20098;-96
2023/07/20 01:31:28;;;;;;;17.13;8.52;;;;;;;15.94;93.77;101349.84;4921774;29;20031;-96
2023/07/20 01:34:02;;;;;;;18.85;9.10;;;;;;;15.98;94.31;101356.88;4921367;29;20032;-96
2023/07/20 01:36:32;;;;;;;16.67;9.02;;;;;;;16.03;94.83;101363.06;4920220;29;20040;-95
2023/07/20 01:39:04;;;;;;;22.05;10.02;;;;;;;16.04;95.19;101356.94;4919381;29;20035;-96
2023/07/20 01:41:40;;;;;;;20.83;10.13;;;;;;;16.03;95.45;101360.41;4920369;29;20031;-96
2023/07/20 01:44:06;;;;;;;21.17;9.50;;;;;;;16.01;96.09;101349.03;4919943;29;20059;-96
2023/07/20 01:46:33;;;;;;;18.85;9.55;;;;;;;16.01;95.80;101353.41;4922182;29;20059;-96
2023/07/20 01:49:02;;;;;;;21.55;9.65;;;;;;;16.02;96.73;101355.16;4921495;29;20031;-96
2023/07/20 01:51:30;;;;;;;20.70;9.98;;;;;;;16.01;96.81;101351.66;4919466;29;20028;-95
2023/07/20 01:53:59;;;;;;;21.65;10.32;;;;;;;15.99;97.61;101354.28;4919654;29;20023;-95
2023/07/20 01:56:27;;;;;;;21.42;9.40;;;;;;;16.00;97.61;101360.41;4919584;29;20050;-95
2023/07/20 01:58:58;;;;;;;21.77;11.25;;;;;;;16.02;97.39;101358.69;4921101;29;20114;-96
2023/07/20 02:01:27;;;;;;;21.67;10.10;;;;;;;16.00;97.56;101360.41;4920182;29;20087;-95
2023/07/20 02:03:58;;;;;;;21.45;11.18;;;;;;;16.03;97.46;101356.94;4920085;29;20101;-96
2023/07/20 02:06:26;;;;;;;21.27;10.85;;;;;;;16.05;97.76;101357.81;4920561;29;20067;-96
2023/07/20 02:08:54;;;;;;;25.53;11.10;;;;;;;16.08;97.13;101361.34;4924587;29;20082;-94
2023/07/20 02:11:25;;;;;;;23.50;12.07;;;;;;;16.11;96.85;101365.78;4920199;29;20027;-96
2023/07/20 02:13:51;;;;;;;21.23;11.25;;;;;;;16.10;96.87;101367.50;4925010;29;20127;-95
2023/07/20 02:16:21;;;;;;;21.80;11.50;;;;;;;16.09;96.75;101365.75;4929601;29;20027;-96
2023/07/20 02:18:51;;;;;;;23.77;12.52;;;;;;;16.09;97.24;101371.03;4922402;29;20027;-96
2023/07/20 02:21:19;;;;;;;29.35;13.07;;;;;;;16.07;97.55;101372.72;4927784;29;20114;-95
2023/07/20 02:23:51;;;;;;;25.90;13.50;;;;;;;16.04;97.83;101371.84;4915530;29;20089;-96
2023/07/20 02:26:19;;;;;;;28.02;13.90;;;;;;;15.99;97.88;101370.03;4912391;29;20028;-95
2023/07/20 02:28:47;;;;;;;29.48;13.73;;;;;;;15.97;98.75;101371.78;4934075;29;20034;-95
2023/07/20 02:31:21;;;;;;;25.92;13.63;;;;;;;15.98;98.75;101375.28;4915424;29;20032;-96
2023/07/20 02:33:55;;;;;;;25.38;13.60;;;;;;;15.98;99.23;101378.78;4934395;29;20026;-96
2023/07/20 02:36:23;;;;;;;30.10;15.13;;;;;;;15.98;99.39;101383.16;4919830;29;20042;-96
2023/07/20 02:38:48;;;;;;;28.23;15.65;;;;;;;15.95;99.42;101376.13;4919054;29;20110;-95
2023/07/20 02:41:19;;;;;;;32.13;16.90;;;;;;;15.97;100.00;101382.31;4912909;29;20040;-95
2023/07/20 02:44:00;;;;;;;29.40;15.95;;;;;;;15.99;99.67;101387.56;4934742;29;20470;-95
2023/07/20 02:46:39;;;;;;;28.63;16.13;;;;;;;15.98;99.67;101381.41;4914977;29;20135;-96
2023/07/20 02:49:08;;;;;;;29.65;16.00;;;;;;;16.00;99.84;101389.31;4935360;29;20052;-96
2023/07/20 02:51:34;;;;;;;31.45;16.08;;;;;;;16.01;99.44;101391.09;4928534;28;20061;-95
2023/07/20 02:54:03;;;;;;;33.90;17.30;;;;;;;16.03;99.66;101389.34;4927331;29;20047;-95
2023/07/20 02:56:31;;;;;;;33.03;17.30;;;;;;;16.06;99.60;101399.00;4914508;29;20036;-96
2023/07/20 02:59:01;;;;;;;35.07;17.70;;;;;;;16.07;99.40;101392.91;4938303;29;20023;-96
2023/07/20 03:01:30;;;;;;;29.77;16.92;;;;;;;16.09;99.61;101394.69;4919064;29;20101;-96
2023/07/20 03:03:56;;;;;;;34.25;16.88;;;;;;;16.07;98.60;101400.78;4924944;29;20517;-96
2023/07/20 03:06:29;;;;;;;31.02;16.77;;;;;;;15.98;98.91;101405.06;4931351;29;20078;-95
2023/07/20 03:08:57;;;;;;;32.17;16.95;;;;;;;15.94;99.42;101402.41;4925814;29;20110;-96
2023/07/20 03:11:28;;;;;;;36.35;18.20;;;;;;;15.92;99.90;101402.38;4925400;29;20028;-96
2023/07/20 03:13:56;;;;;;;37.55;19.52;;;;;;;15.88;99.97;101407.59;4917995;29;20051;-96
2023/07/20 03:16:26;;;;;;;39.97;19.70;;;;;;;15.87;100.00;101411.94;4923124;29;20031;-96
2023/07/20 03:18:52;;;;;;;40.67;20.58;;;;;;;15.88;100.00;101415.47;4922832;29;20046;-96
2023/07/20 03:21:17;;;;;;;37.40;20.02;;;;;;;15.86;100.00;101414.56;4922641;29;20036;-95
2023/07/20 03:23:57;;;;;;;39.83;21.38;;;;;;;15.78;100.00;101412.72;4920342;29;20974;-95
2023/07/20 03:26:22;;;;;;;37.08;20.30;;;;;;;15.72;100.00;101419.66;4907558;29;20083;-96
2023/07/20 03:28:51;;;;;;;34.47;18.63;;;;;;;15.62;100.00;101418.66;4922683;29;20032;-95
2023/07/20 03:31:25;;;;;;;30.40;17.52;;;;;;;15.54;100.00;101426.44;4922007;29;20028;-96
2023/07/20 03:33:53;;;;;;;31.48;18.20;;;;;;;15.51;100.00;101426.41;4923071;29;20012;-95
2023/07/20 03:36:24;;;;;;;35.17;17.75;;;;;;;15.50;100.00;101426.38;4924024;29;20024;-95
2023/07/20 03:38:50;;;;;;;31.05;16.48;;;;;;;15.53;100.00;101422.06;4922008;29;20053;-95
2023/07/20 03:41:19;;;;;;;30.30;15.70;;;;;;;15.52;100.00;101425.53;4921698;29;20379;-95
2023/07/20 03:43:50;;;;;;;27.10;15.77;;;;;;;15.53;100.00;101426.44;4935732;29;20055;-96
2023/07/20 03:46:19;;;;;;;29.17;16.20;;;;;;;15.49;100.00;101425.50;4936247;29;20024;-96
2023/07/20 03:48:47;;;;;;;26.83;15.13;;;;;;;15.46;100.00;101423.72;4921386;29;20028;-95
2023/07/20 03:51:20;;;;;;;27.80;15.18;;;;;;;15.44;100.00;101438.56;4907765;29;20474;-95
2023/07/20 03:53:46;;;;;;;26.02;14.98;;;;;;;15.42;100.00;101427.16;4921975;29;20028;-96
2023/07/20 03:56:22;;;;;;;27.17;14.15;;;;;;;15.39;100.00;101435.00;4921282;29;20040;-96
2023/07/20 03:58:53;;;;;;;28.40;13.55;;;;;;;15.41;100.00;101437.63;4921655;29;20068;-95
2023/07/20 04:01:22;;;;;;;22.92;12.82;;;;;;;15.38;99.74;101433.25;4916074;29;20028;-95
2023/07/20 04:03:47;;;;;;;22.93;13.47;;;;;;;15.35;99.93;101438.47;4918488;29;20024;-95
2023/07/20 04:06:17;;;;;;;21.50;12.77;;;;;;;15.36;99.78;101441.97;4918757;29;20382;-95
2023/07/20 04:08:47;;;;;;;22.52;12.80;;;;;;;15.38;99.41;101442.84;4919541;29;20028;-95
2023/07/20 04:11:15;;;;;;;19.00;11.65;;;;;;;15.38;99.33;101446.38;4914354;29;20044;-96
2023/07/20 04:13:51;;;;;;;21.17;12.00;;;;;;;15.38;99.05;101445.47;4920051;29;20063;-96
2023/07/20 04:16:17;;;;;;;20.35;11.57;;;;;;;15.40;98.74;101449.03;4919131;29;20032;-96
2023/07/20 04:18:42;;;;;;;21.17;11.82;;;;;;;15.36;98.57;101434.97;4919305;29;20036;-96
2023/07/20 04:21:11;;;;;;;20.08;12.07;;;;;;;15.32;98.23;101440.16;4918726;29;20549;-95
2023/07/20 04:23:41;;;;;;;20.30;12.43;;;;;;;15.26;98.27;101444.44;4918745;29;20458;-95
2023/07/20 04:26:07;;;;;;;19.90;12.13;;;;;;;15.18;98.52;101450.44;4907163;29;20024;-96
2023/07/20 04:28:36;;;;;;;22.00;13.05;;;;;;;15.15;98.80;101442.53;4919560;29;20043;-95
2023/07/20 04:31:23;;;;;;;20.02;12.70;;;;;;;15.15;98.70;101447.78;4912799;29;20036;-96
2023/07/20 04:33:51;;;;;;;20.52;12.07;;;;;;;15.19;98.13;101449.59;4922682;29;20024;-96
2023/07/20 04:36:19;;;;;;;20.67;12.32;;;;;;;15.20;98.15;101448.75;4916882;29;20032;-96
2023/07/20 04:38:48;;;;;;;19.83;12.07;;;;;;;15.20;97.97;101454.88;4919704;29;20115;-95
2023/07/20 04:41:17;;;;;;;19.42;12.07;;;;;;;15.21;97.67;101446.13;4919390;29;20099;-96
2023/07/20 04:43:46;;;;;;;20.27;12.18;;;;;;;15.19;97.76;101450.47;4918121;29;20042;-96
2023/07/20 04:46:31;;;;;;;18.13;11.80;;;;;;;15.17;97.64;101454.81;4918818;29;20107;-96
2023/07/20 04:48:59;;;;;;;18.65;11.65;;;;;;;15.18;97.32;101456.59;4925451;29;20035;-96
2023/07/20 04:51:30;;;;;;;18.20;11.75;;;;;;;15.21;97.21;101455.78;4918694;29;20475;-95
2023/07/20 04:54:00;;;;;;;19.40;11.13;;;;;;;15.17;96.89;101453.97;4919366;29;20056;-96
2023/07/20 04:56:50;;;;;;;19.55;12.07;;;;;;;15.16;97.50;101446.94;4917932;29;20716;-96
2023/07/20 04:59:18;;;;;;;17.90;11.95;;;;;;;15.11;97.49;101445.13;4913938;29;20028;-95
2023/07/20 05:02:10;;;;;;;17.45;11.68;;;;;;;15.16;97.29;101446.94;4917850;29;20051;-95
2023/07/20 05:04:43;;;;;;;21.05;13.23;;;;;;;15.17;97.51;101451.34;4918846;29;20464;-96
2023/07/20 05:07:13;;;;;;;19.88;12.48;;;;;;;15.18;97.52;101446.09;4918172;29;20028;-96
2023/07/20 05:09:41;;;;;;;23.17;14.57;;;;;;;15.20;97.35;101448.75;4919622;29;20055;-95
2023/07/20 05:12:11;;;;;;;25.38;17.40;;;;;;;15.17;97.96;101440.84;4917204;29;20036;-94
2023/07/20 05:14:38;;;;;;;25.08;17.42;;;;;;;15.13;98.46;101437.25;4918205;29;20044;-94
2023/07/20 05:17:03;;;;;;;22.85;16.10;;;;;;;15.13;98.40;101442.50;4917399;29;20072;-96
2023/07/20 05:19:38;;;;;;;24.17;15.82;;;;;;;15.14;98.57;101439.03;4917718;29;20478;-94
2023/07/20 05:22:11;;;;;;;24.00;16.55;;;;;;;15.12;98.82;101440.78;4917139;29;20028;-94
2023/07/20 05:24:37;;;;;;;25.42;16.30;;;;;;;15.10;99.91;101439.84;4915905;29;20111;-94
2023/07/20 05:27:03;;;;;;;26.40;17.80;;;;;;;15.04;100.00;101442.38;4917077;29;20127;-95
2023/07/20 05:29:32;;;;;;;25.60;16.95;;;;;;;15.01;100.00;101452.84;4917521;29;20040;-96
2023/07/20 05:31:58;;;;;;;29.15;18.23;;;;;;;14.96;100.00;101450.13;4917321;29;20032;-95
2023/07/20 05:34:29;;;;;;;30.20;18.08;;;;;;;14.95;100.00;101454.50;4917169;29;20032;-95
2023/07/20 05:37:14;;;;;;;31.60;19.92;;;;;;;14.96;100.00;101460.63;4917585;29;20031;-96
2023/07/20 05:39:56;;;;;;;;;;;;;;;;;;;;;
2023/07/20 05:42:41;;;;;;;25.60;16.42;;;;;;;14.94;100.00;101462.34;4918177;29;20039;-96
2023/07/20 05:45:15;;;;;;;25.67;16.60;;;;;;;14.92;100.00;101466.72;4917443;29;20028;-96
2023/07/20 05:47:51;;;;;;;24.70;17.27;;;;;;;14.96;100.00;101471.13;4916932;29;20032;-96
2023/07/20 05:50:25;;;;;;;25.98;16.88;;;;;;;15.00;100.00;101474.69;4914901;29;20399;-96
2023/07/20 05:53:00;;;;;;;20.92;14.27;;;;;;;15.04;100.00;101472.13;4917295;29;20028;-96
2023/07/20 05:55:39;;;;;;;23.27;15.18;;;;;;;15.04;100.00;101474.75;4912305;29;20047;-96
2023/07/20 05:58:10;;;;;;;23.15;15.52;;;;;;;15.08;100.00;101476.56;4916475;29;20036;-96
2023/07/20 06:00:35;;;;;;;20.63;14.10;;;;;;;15.10;100.00;101474.84;4921504;29;20044;-96
2023/07/20 06:03:07;;;;;;;21.75;14.68;;;;;;;15.18;100.00;101471.44;4915927;29;20098;-96
2023/07/20 06:05:37;;;;;;;20.80;13.48;;;;;;;15.24;100.00;101476.81;4927236;29;20075;-95
2023/07/20 06:08:05;;;;;;;19.33;14.05;;;;;;;15.32;100.00;101480.41;4915884;29;20027;-95
2023/07/20 06:10:33;;;;;;;20.67;13.63;;;;;;;15.37;100.00;101485.75;4916149;29;20020;-95
2023/07/20 06:13:01;;;;;;;19.13;12.50;;;;;;;15.43;100.00;101486.69;4920772;29;20047;-94
2023/07/20 06:15:44;;;;;;;13.88;10.43;;;;;;;15.54;100.00;101483.34;4921722;29;20060;-95
2023/07/20 06:18:15;;;;;;;13.85;9.25;;;;;;;15.64;100.00;101496.63;4917331;29;20039;-95
2023/07/20 06:20:56;;;;;;;10.40;7.85;;;;;;;15.72;100.00;101480.09;4921365;29;20043;-95
2023/07/20 06:23:38;;;;;;;10.20;6.55;;;;;;;15.85;100.00;101492.53;4914353;29;20040;-95
2023/07/20 06:26:03;;;;;;;10.80;7.60;;;;;;;15.94;100.00;101491.75;4918839;29;20413;-95
2023/07/20 06:28:36;;;;;;;11.20;6.55;;;;;;;15.97;99.54;101492.69;4920855;29;20019;-96
2023/07/20 06:31:03;;;;;;;9.10;7.07;;;;;;;16.06;99.34;101494.53;4927363;29;20027;-96
2023/07/20 06:33:35;;;;;;;8.70;6.55;;;;;;;16.12;98.57;101491.06;4929056;29;20020;-96
2023/07/20 06:36:04;;;;;;;11.52;6.90;;;;;;;16.21;98.00;101496.44;4923484;29;20116;-96
2023/07/20 06:38:35;;;;;;;9.88;7.55;;;;;;;16.25;96.03;101489.47;4925276;29;20031;-96
2023/07/20 06:41:00;;;;;;;8.85;6.68;;;;;;;16.26;95.94;101493.88;4929478;29;20044;-96
2023/07/20 06:43:31;;;;;;;8.73;6.43;;;;;;;16.32;95.53;101484.31;4928328;29;20054;-96
2023/07/20 06:46:02;;;;;;;8.98;7.20;;;;;;;16.39;95.46;101485.22;4927797;29;20040;-96
2023/07/20 06:48:45;;;;;;;10.52;7.95;;;;;;;16.46;96.27;101489.69;4928958;29;20036;-96
2023/07/20 06:51:13;;;;;;;10.13;8.27;;;;;;;16.53;94.85;101485.38;4931404;29;20047;-96
2023/07/20 06:53:52;;;;;;;9.73;7.88;;;;;;;16.54;96.74;101484.50;4927010;29;20027;-96
2023/07/20 06:56:21;;;;;;;;;;;;;;;16.65;95.30;101487.22;4916967;29;20035;-96
2023/07/20 06:58:51;;;;;;;9.00;6.85;;;;;;;16.64;93.28;101485.47;4915140;29;20005;-96
2023/07/20 07:01:23;;;;;;;9.98;7.93;;;;;;;16.65;93.50;101489.84;4916644;29;20035;-96
2023/07/20 07:03:51;;;;;;;10.50;8.65;;;;;;;16.71;92.22;101491.66;4918674;29;20107;-96
2023/07/20 07:06:37;;;;;;;9.95;8.35;;;;;;;16.72;92.67;101493.44;4911568;29;20032;-96
2023/07/20 07:09:11;;;;;;;10.10;8.52;;;;;;;16.64;92.78;101502.16;4913096;29;20114;-96
2023/07/20 07:11:36;;;;;;;8.20;7.30;;;;;;;16.58;91.96;101496.81;4920112;29;20130;-96
2023/07/20 07:14:10;;;;;;;9.32;7.30;;;;;;;16.57;93.15;101499.41;4918399;29;20090;-95
2023/07/20 07:16:38;;;;;;;9.60;7.60;;;;;;;16.58;92.48;101501.19;4931637;29;20027;-95
2023/07/20 07:19:05;;;;;;;11.95;7.60;;;;;;;16.58;92.99;101511.72;4918701;29;20031;-95
2023/07/20 07:21:33;;;;;;;8.57;7.45;;;;;;;16.56;91.52;101508.22;4910993;29;20020;-94
2023/07/20 07:23:59;;;;;;;7.53;6.20;;;;;;;16.55;93.47;101507.31;4925058;29;20362;-95
2023/07/20 07:26:27;;;;;;;7.70;6.65;;;;;;;16.56;91.12;101506.44;4918950;29;20039;-95
2023/07/20 07:28:55;;;;;;;8.70;6.27;;;;;;;16.55;91.31;101502.03;4924552;29;20493;-95
2023/07/20 07:31:25;;;;;;;7.63;6.82;;;;;;;16.60;91.78;101502.09;4904470;29;20032;-94
2023/07/20 07:33:50;;;;;;;7.20;6.20;;;;;;;16.63;91.75;101497.75;4933719;29;20027;-94
2023/07/20 07:36:15;;;;;;;7.47;6.03;;;;;;;16.70;91.55;101498.69;4920182;29;20020;-95
2023/07/20 07:38:41;;;;;;;8.10;5.82;;;;;;;16.77;91.64;101500.50;4921492;29;20107;-95
2023/07/20 07:41:06;;;;;;;5.93;4.97;;;;;;;16.83;90.25;101510.22;4922041;29;20060;-94
2023/07/20 07:43:32;;;;;;;6.72;4.90;;;;;;;16.86;88.91;101510.22;4922607;29;20046;-94
2023/07/20 07:45:57;;;;;;;5.13;4.50;;;;;;;16.90;89.37;101508.53;4922489;29;20034;-94
2023/07/20 07:48:28;;;;;;;5.10;3.90;;;;;;;16.96;88.51;101514.72;4922131;29;20030;-95
2023/07/20 07:50:54;;;;;;;5.05;3.58;;;;;;;17.04;86.57;101517.41;4921200;29;20024;-95
2023/07/20 07:53:20;;;;;;;4.20;3.33;;;;;;;17.21;86.53;101526.31;4924101;29;20035;-95
2023/07/20 07:55:48;;;;;;;4.90;3.00;;;;;;;17.36;84.80;101519.38;4921846;29;20023;-95
2023/07/20 07:58:14;;;;;;;5.45;3.17;;;;;;;17.58;84.93;101519.53;4922303;29;20035;-95
2023/07/20 08:00:39;;;;;;;4.35;2.30;;;;;;;17.73;80.03;101520.47;4921903;29;20046;-96
2023/07/20 08:03:08;;;;;;;3.47;2.40;;;;;;;17.96;81.25;101521.47;4922497;29;20023;-95
2023/07/20 08:05:43;;;;;;;3.70;2.80;;;;;;;18.08;80.72;101522.41;4922083;29;20023;-94
2023/07/20 08:08:09;;;;;;;4.32;3.65;;;;;;;18.28;82.07;101531.25;4922000;29;20055;-94
2023/07/20 08:10:37;;;;;;;5.43;3.97;;;;;;;18.33;79.47;101527.75;4923919;29;20024;-95
2023/07/20 08:13:02;;;;;;;4.80;4.05;;;;;;;18.22;79.80;101527.72;4920056;29;20490;-94
2023/07/20 08:15:28;;;;;;;4.50;3.53;;;;;;;18.14;80.15;101532.09;4936590;29;20020;-95
2023/07/20 08:17:56;;;;;;;4.85;4.13;;;;;;;18.00;80.32;101536.44;4923676;29;20035;-95
2023/07/20 08:20:26;;;;;;;4.30;2.97;;;;;;;17.90;80.49;101533.78;4923094;29;20031;-94
2023/07/20 08:22:53;;;;;;;3.75;2.10;;;;;;;17.84;79.49;101538.09;4923880;29;20028;-94
2023/07/20 08:25:22;;;;;;;3.70;3.00;;;;;;;17.80;80.67;101537.22;4935377;29;20039;-95
2023/07/20 08:27:50;;;;;;;5.13;4.20;;;;;;;17.78;80.40;101536.31;4940422;29;20038;-95
2023/07/20 08:30:15;;;;;;;4.95;3.70;;;;;;;17.81;82.04;101535.44;4922107;29;20043;-95
2023/07/20 08:32:44;;;;;;;3.83;3.05;;;;;;;17.96;80.58;101532.91;4924278;29;20050;-94
2023/07/20 08:35:09;;;;;;;4.28;3.10;;;;;;;18.11;78.93;101532.09;4925834;29;20027;-93
2023/07/20 08:37:35;;;;;;;4.05;3.10;;;;;;;18.28;75.50;101529.50;4918030;29;20036;-94
2023/07/20 08:40:00;;;;;;;3.80;2.50;;;;;;;18.54;78.13;101526.06;4921501;29;20031;-94
2023/07/20 08:42:30;;;;;;;2.90;1.33;;;;;;;18.68;70.77;101526.06;4920502;29;20035;-94
2023/07/20 08:44:59;;;;;;;3.00;2.17;;;;;;;18.72;72.57;101519.91;4905341;29;20032;-94
2023/07/20 08:47:26;;;;;;;3.70;2.45;;;;;;;18.88;74.17;101521.69;4922474;29;20028;-94
2023/07/20 08:49:55;;;;;;;3.30;2.10;;;;;;;19.03;69.27;101519.94;4938195;29;20070;-95
2023/07/20 08:55:07;;;;;;;3.78;2.78;;;;;;;19.47;71.47;101516.34;4932768;29;20437;-95
2023/07/20 08:57:33;;;;;;;4.57;3.00;;;;;;;19.45;69.23;101515.44;4921611;29;20095;-95
2023/07/20 09:00:04;;;;;;;4.35;2.72;;;;;;;19.53;69.55;101518.09;4921116;29;20028;-94
2023/07/20 09:02:35;;;;;;;3.35;2.22;;;;;;;19.70;71.51;101521.56;4920187;29;20032;-95
2023/07/20 09:05:00;;;;;;;3.88;3.05;;;;;;;19.78;71.00;101522.47;4937051;29;20035;-94
2023/07/20 09:07:29;;;;;;;4.35;2.70;;;;;;;19.72;72.92;101517.13;4923008;29;20024;-95
2023/07/20 09:09:57;;;;;;;3.95;1.90;;;;;;;19.75;72.68;101518.91;4921168;29;20068;-96
2023/07/20 09:12:25;;;;;;;4.95;2.50;;;;;;;19.64;68.67;101514.53;4919751;29;20046;-95
2023/07/20 09:14:51;;;;;;;3.17;2.10;;;;;;;19.48;69.93;101518.13;4917896;29;20111;-95
2023/07/20 09:17:16;;;;;;;4.38;2.50;;;;;;;19.46;70.30;101512.84;4917839;29;20040;-96
2023/07/20 09:19:48;;;;;;;3.65;2.50;;;;;;;19.38;70.84;101519.00;4920612;29;20490;-96
2023/07/20 09:22:13;;;;;;;3.90;2.10;;;;;;;19.37;72.42;101514.63;4919310;29;20454;-95
2023/07/20 09:24:39;;;;;;;4.63;3.15;;;;;;;19.34;69.33;101514.63;4919338;29;20024;-95
2023/07/20 09:27:04;;;;;;;3.22;2.53;;;;;;;19.28;70.82;101513.75;4916883;29;20486;-96
2023/07/20 09:29:32;;;;;;;3.38;2.40;;;;;;;19.25;70.50;101504.94;4918741;29;20042;-96
2023/07/20 09:32:02;;;;;;;3.47;2.13;;;;;;;19.30;71.63;101508.44;4918691;29;20039;-96
2023/07/20 09:34:31;;;;;;;5.75;1.90;;;;;;;19.31;71.49;101504.06;4919703;29;20024;-95
2023/07/20 09:36:58;;;;;;;3.10;1.48;;;;;;;19.28;71.54;101500.53;4917469;29;20123;-95
2023/07/20 09:39:23;;;;;;;3.20;2.00;;;;;;;19.24;71.71;101504.06;4919842;29;20099;-96
2023/07/20 09:41:52;;;;;;;3.25;1.98;;;;;;;19.18;71.52;101506.72;4920084;29;20055;-96
2023/07/20 09:44:18;;;;;;;3.22;2.25;;;;;;;19.20;72.59;101512.84;4914000;29;20064;-96
2023/07/20 09:46:45;;;;;;;2.58;1.58;;;;;;;19.38;68.20;101505.78;4916911;29;20028;-96
2023/07/20 09:49:11;;;;;;;5.40;1.80;;;;;;;19.65;71.00;101502.19;4921289;29;20042;-96
2023/07/20 09:51:40;;;;;;;3.63;1.75;;;;;;;20.02;68.25;101503.84;4909278;29;20107;-96
2023/07/20 09:54:06;;;;;;;;;;;;;;;20.26;69.35;101506.34;4902180;29;20271;-96
2023/07/20 09:56:33;;;;;;;3.58;2.00;;;;;;;20.52;64.95;101505.28;4916051;29;20170;-95
2023/07/20 09:59:01;;;;;;;2.90;1.70;;;;;;;20.69;66.22;101497.25;4906032;29;20032;-96
2023/07/20 10:01:29;;;;;;;1.77;1.20;;;;;;;20.96;64.97;101496.13;4911796;29;20147;-95
2023/07/20 10:03:58;;;;;;;2.00;1.30;;;;;;;21.17;61.30;101494.16;4931322;29;20028;-94
2023/07/20 10:06:27;;;;;;;1.65;1.00;;;;;;;21.28;60.31;101492.28;4916887;29;20104;-95
2023/07/20 10:08:55;;;;;;;2.67;1.20;;;;;;;21.51;62.22;101500.03;4916228;29;20163;-96
2023/07/20 10:11:25;;;;;;;2.78;1.70;;;;;;;21.74;58.66;101490.94;4919095;29;20063;-95
2023/07/20 10:13:58;;;;;;;2.83;1.58;;;;;;;21.84;59.08;101489.00;4917343;29;20062;-96
2023/07/20 10:16:36;;;;;;;3.20;1.92;;;;;;;21.84;59.47;101487.25;4910031;29;20033;-95
2023/07/20 10:19:20;;;;;;;2.47;1.70;;;;;;;21.88;58.92;101482.78;4921904;29;20030;-95
2023/07/20 10:22:01;;;;;;;2.95;1.60;;;;;;;21.87;57.61;101481.91;4921858;29;20127;-96
2023/07/20 10:24:27;;;;;;;3.03;1.40;;;;;;;21.97;56.97;101482.66;4917336;29;20036;-95
2023/07/20 10:26:56;;;;;;;3.30;1.40;;;;;;;22.06;58.69;101479.00;4913522;29;20028;-96
2023/07/20 10:29:22;;;;;;;3.30;1.65;;;;;;;22.03;53.82;101479.91;4918425;29;20038;-95
2023/07/20 10:31:49;;;;;;;3.08;1.40;;;;;;;21.89;57.35;101474.78;4917677;29;20219;-96
2023/07/20 10:34:15;;;;;;;2.22;1.30;;;;;;;22.08;58.28;101469.22;4916505;29;20091;-95
2023/07/20 10:36:52;;;;;;;3.83;1.70;;;;;;;21.91;56.76;101477.41;4916024;29;20435;-95
2023/07/20 10:39:31;;;;;;;2.88;1.50;;;;;;;21.62;58.46;101478.66;4917082;29;20463;-96
2023/07/20 10:42:01;;;;;;;2.92;1.30;;;;;;;21.69;57.19;101472.38;4911510;29;20114;-96
2023/07/20 10:44:27;;;;;;;1.98;1.30;;;;;;;21.87;57.46;101467.78;4906924;29;20028;-95
2023/07/20 10:46:59;;;;;;;3.85;1.40;;;;;;;21.95;55.84;101468.53;4915269;29;20103;-95
2023/07/20 10:49:26;;;;;;;2.38;1.30;;;;;;;21.93;55.54;101461.47;4906720;29;20032;-95
2023/07/20 10:52:01;;;;;;;1.90;1.20;;;;;;;22.36;57.53;101450.25;4909797;29;20059;-96
2023/07/20 10:54:27;;;;;;;2.10;1.40;;;;;;;22.80;54.44;101458.41;4910189;29;20020;-96
2023/07/20 10:57:25;;;;;;;2.58;1.33;;;;;;;22.97;53.30;101455.44;4920754;29;20486;-96
2023/07/20 10:59:51;;;;;;;2.55;1.35;;;;;;;23.03;51.81;101455.34;4918568;29;20051;-96
2023/07/20 11:02:19;;;;;;;4.53;1.38;;;;;;;23.11;52.88;101460.53;4918807;29;20032;-96
2023/07/20 11:04:50;;;;;;;2.00;1.30;;;;;;;23.12;49.34;101455.19;4913052;29;20546;-95
2023/07/20 11:07:37;;;;;;;2.97;1.50;;;;;;;22.85;49.40;101446.78;4912108;29;20036;-95
2023/07/20 11:10:15;;;;;;;3.45;1.60;;;;;;;22.95;52.15;101450.16;4915852;29;20123;-96
2023/07/20 11:12:41;;;;;;;2.20;1.20;;;;;;;23.06;48.98;101449.97;4919910;29;20190;-95
2023/07/20 11:15:07;;;;;;;2.55;1.20;;;;;;;22.97;51.23;101452.78;4932314;29;20058;-96
2023/07/20 11:17:35;;;;;;;2.83;1.30;;;;;;;22.61;53.07;101453.41;4921548;29;20032;-94
2023/07/20 11:20:02;;;;;;;3.53;1.20;;;;;;;22.42;52.74;101451.94;4910717;29;20114;-94
2023/07/20 11:22:30;;;;;;;2.30;1.50;;;;;;;22.24;54.36;101446.00;4923896;29;20065;-95
2023/07/20 11:24:59;;;;;;;2.13;1.23;;;;;;;22.18;53.46;101457.56;4920263;29;20548;-94
2023/07/20 11:27:26;;;;;;;;;;;;;;;22.19;56.67;101450.50;4939786;29;20101;-94
2023/07/20 11:29:52;;;;;;;3.53;1.23;;;;;;;22.03;54.39;101434.81;4920937;29;19922;-95
2023/07/20 11:32:33;;;;;;;5.15;1.42;;;;;;;21.95;55.88;101442.00;4922140;29;20031;-94
2023/07/20 11:34:59;;;;;;;2.58;1.20;;;;;;;21.90;56.50;101438.53;4921435;29;20043;-94
2023/07/20 11:37:24;;;;;;;2.10;1.27;;;;;;;21.82;57.45;101443.06;4916906;29;20030;-94